sensor_id;sensor_type;location;lat;lon;timestamp;P1;durP1;ratioP1;P2;durP2;ratioP2
69917;SDS011;57203;42.672;23.334;2023-05-10T00:00:15;7.3;;;5.5;;
69917;SDS011;57203;42.672;23.334;2023-05-10T00:01:15;7.6;;;6.0;;
69917;SDS011;57203;42.672;23.334;2023-05-10T00:02:15;8.0;;;5.8;;
69917;SDS011;57203;42.672;23.334;2023-05-10T00:03:16;8.3;;;6.0;;
69917;SDS011;57203;42.672;23.334;2023-05-10T00:04:16;8.3;;;6.1;;
69917;SDS011;57203;42.672;23.334;2023-05-10T00:05:16;7.5;;;5.7;;
69917;SDS011;57203;42.672;23.334;2023-05-10T00:06:16;7.9;;;6.2;;
69917;SDS011;57203;42.672;23.334;2023-05-10T00:07:16;9.1;;;6.0;;
69917;SDS011;57203;42.672;23.334;2023-05-10T00:08:17;7.9;;;6.4;;
69917;SDS011;57203;42.672;23.334;2023-05-10T00:09:17;8.8;;;6.3;;
69917;SDS011;57203;42.672;23.334;2023-05-10T00:10:17;8.1;;;5.7;;
69917;SDS011;57203;42.672;23.334;2023-05-10T00:11:17;7.4;;;6.0;;
69917;SDS011;57203;42.672;23.334;2023-05-10T00:12:18;7.6;;;5.8;;
69917;SDS011;57203;42.672;23.334;2023-05-10T00:13:17;7.6;;;5.7;;
69917;SDS011;57203;42.672;23.334;2023-05-10T00:14:18;8.3;;;6.0;;
69917;SDS011;57203;42.672;23.334;2023-05-10T00:15:18;9.0;;;5.5;;
69917;SDS011;57203;42.672;23.334;2023-05-10T00:16:18;7.6;;;5.7;;
69917;SDS011;57203;42.672;23.334;2023-05-10T00:17:18;7.7;;;5.3;;
69917;SDS011;57203;42.672;23.334;2023-05-10T00:18:18;6.7;;;5.9;;
69917;SDS011;57203;42.672;23.334;2023-05-10T00:19:19;7.2;;;6.4;;
69917;SDS011;57203;42.672;23.334;2023-05-10T00:20:19;9.0;;;6.0;;
69917;SDS011;57203;42.672;23.334;2023-05-10T00:21:19;8.3;;;6.3;;
69917;SDS011;57203;42.672;23.334;2023-05-10T00:22:19;8.8;;;5.7;;
69917;SDS011;57203;42.672;23.334;2023-05-10T00:23:19;7.6;;;6.4;;
69917;SDS011;57203;42.672;23.334;2023-05-10T00:24:20;9.0;;;7.1;;
69917;SDS011;57203;42.672;23.334;2023-05-10T00:25:20;9.8;;;6.2;;
69917;SDS011;57203;42.672;23.334;2023-05-10T00:26:20;8.7;;;6.9;;
69917;SDS011;57203;42.672;23.334;2023-05-10T00:28:20;8.8;;;6.6;;
69917;SDS011;57203;42.672;23.334;2023-05-10T00:29:20;8.9;;;6.5;;
69917;SDS011;57203;42.672;23.334;2023-05-10T00:30:20;8.3;;;6.9;;
69917;SDS011;57203;42.672;23.334;2023-05-10T00:31:21;9.2;;;6.6;;
69917;SDS011;57203;42.672;23.334;2023-05-10T00:32:21;9.0;;;6.8;;
69917;SDS011;57203;42.672;23.334;2023-05-10T00:34:21;72.7;;;52.6;;
69917;SDS011;57203;42.672;23.334;2023-05-10T00:35:22;132.4;;;101.5;;
69917;SDS011;57203;42.672;23.334;2023-05-10T00:36:22;132.4;;;32.6;;
69917;SDS011;57203;42.672;23.334;2023-05-10T00:37:22;44.3;;;6.8;;
69917;SDS011;57203;42.672;23.334;2023-05-10T00:38:22;9.8;;;7.8;;
69917;SDS011;57203;42.672;23.334;2023-05-10T00:39:22;9.8;;;7.2;;
69917;SDS011;57203;42.672;23.334;2023-05-10T00:40:22;9.3;;;6.7;;
69917;SDS011;57203;42.672;23.334;2023-05-10T00:44:23;8.3;;;6.6;;
69917;SDS011;57203;42.672;23.334;2023-05-10T00:45:23;8.8;;;7.3;;
69917;SDS011;57203;42.672;23.334;2023-05-10T00:46:24;11.2;;;7.1;;
69917;SDS011;57203;42.672;23.334;2023-05-10T00:47:24;8.4;;;6.5;;
69917;SDS011;57203;42.672;23.334;2023-05-10T00:48:24;8.4;;;7.4;;
69917;SDS011;57203;42.672;23.334;2023-05-10T00:49:24;10.8;;;7.1;;
69917;SDS011;57203;42.672;23.334;2023-05-10T00:50:24;9.6;;;7.4;;
69917;SDS011;57203;42.672;23.334;2023-05-10T00:51:24;9.7;;;6.7;;
69917;SDS011;57203;42.672;23.334;2023-05-10T00:52:25;8.8;;;7.5;;
69917;SDS011;57203;42.672;23.334;2023-05-10T00:53:25;9.3;;;7.0;;
69917;SDS011;57203;42.672;23.334;2023-05-10T00:54:25;9.2;;;7.1;;
69917;SDS011;57203;42.672;23.334;2023-05-10T00:55:25;8.9;;;7.5;;
69917;SDS011;57203;42.672;23.334;2023-05-10T00:56:25;9.7;;;7.9;;
69917;SDS011;57203;42.672;23.334;2023-05-10T00:57:26;10.7;;;7.5;;
69917;SDS011;57203;42.672;23.334;2023-05-10T00:58:26;9.9;;;7.6;;
69917;SDS011;57203;42.672;23.334;2023-05-10T00:59:26;11.0;;;8.4;;
69917;SDS011;57203;42.672;23.334;2023-05-10T01:00:26;11.0;;;7.3;;
69917;SDS011;57203;42.672;23.334;2023-05-10T01:01:26;10.1;;;7.5;;
69917;SDS011;57203;42.672;23.334;2023-05-10T01:02:27;9.1;;;8.0;;
69917;SDS011;57203;42.672;23.334;2023-05-10T01:04:27;10.3;;;7.4;;
69917;SDS011;57203;42.672;23.334;2023-05-10T01:05:27;10.6;;;7.9;;
69917;SDS011;57203;42.672;23.334;2023-05-10T01:08:28;10.8;;;7.7;;
69917;SDS011;57203;42.672;23.334;2023-05-10T01:09:28;10.2;;;8.0;;
69917;SDS011;57203;42.672;23.334;2023-05-10T01:10:28;10.2;;;7.6;;
69917;SDS011;57203;42.672;23.334;2023-05-10T01:11:28;10.4;;;7.7;;
69917;SDS011;57203;42.672;23.334;2023-05-10T01:12:28;9.7;;;72.4;;
69917;SDS011;57203;42.672;23.334;2023-05-10T01:13:30;90.8;;;115.1;;
69917;SDS011;57203;42.672;23.334;2023-05-10T01:14:29;36.9;;;26.1;;
69917;SDS011;57203;42.672;23.334;2023-05-10T01:15:29;36.9;;;8.9;;
69917;SDS011;57203;42.672;23.334;2023-05-10T01:16:29;12.1;;;7.0;;
69917;SDS011;57203;42.672;23.334;2023-05-10T01:17:29;10.3;;;7.7;;
69917;SDS011;57203;42.672;23.334;2023-05-10T01:18:30;10.3;;;8.0;;
69917;SDS011;57203;42.672;23.334;2023-05-10T01:19:30;10.8;;;8.2;;
69917;SDS011;57203;42.672;23.334;2023-05-10T01:20:34;11.0;;;7.6;;
69917;SDS011;57203;42.672;23.334;2023-05-10T01:21:33;9.4;;;7.2;;
69917;SDS011;57203;42.672;23.334;2023-05-10T01:22:36;9.0;;;7.5;;
69917;SDS011;57203;42.672;23.334;2023-05-10T01:23:31;9.5;;;7.7;;
69917;SDS011;57203;42.672;23.334;2023-05-10T01:25:32;9.5;;;7.0;;
69917;SDS011;57203;42.672;23.334;2023-05-10T01:26:39;9.0;;;7.4;;
69917;SDS011;57203;42.672;23.334;2023-05-10T01:28:37;10.5;;;7.9;;
69917;SDS011;57203;42.672;23.334;2023-05-10T01:30:35;9.8;;;7.8;;
69917;SDS011;57203;42.672;23.334;2023-05-10T01:32:34;10.7;;;7.6;;
69917;SDS011;57203;42.672;23.334;2023-05-10T01:33:33;10.1;;;7.1;;
69917;SDS011;57203;42.672;23.334;2023-05-10T01:34:34;9.0;;;7.0;;
69917;SDS011;57203;42.672;23.334;2023-05-10T01:35:34;9.0;;;7.5;;
69917;SDS011;57203;42.672;23.334;2023-05-10T01:36:35;9.9;;;7.2;;
69917;SDS011;57203;42.672;23.334;2023-05-10T01:38:36;8.2;;;6.6;;
69917;SDS011;57203;42.672;23.334;2023-05-10T01:39:36;8.8;;;7.0;;
69917;SDS011;57203;42.672;23.334;2023-05-10T01:41:36;9.4;;;6.7;;
69917;SDS011;57203;42.672;23.334;2023-05-10T01:42:36;9.1;;;6.9;;
69917;SDS011;57203;42.672;23.334;2023-05-10T01:43:37;9.1;;;6.7;;
69917;SDS011;57203;42.672;23.334;2023-05-10T01:44:35;7.8;;;6.8;;
69917;SDS011;57203;42.672;23.334;2023-05-10T01:45:37;9.0;;;6.2;;
69917;SDS011;57203;42.672;23.334;2023-05-10T01:46:36;8.5;;;6.1;;
69917;SDS011;57203;42.672;23.334;2023-05-10T01:47:37;8.0;;;6.4;;
69917;SDS011;57203;42.672;23.334;2023-05-10T01:48:35;6.1;;;5.1;;
69917;SDS011;57203;42.672;23.334;2023-05-10T01:49:36;6.1;;;5.8;;
69917;SDS011;57203;42.672;23.334;2023-05-10T01:50:36;6.8;;;5.2;;
69917;SDS011;57203;42.672;23.334;2023-05-10T01:51:38;6.5;;;5.8;;
69917;SDS011;57203;42.672;23.334;2023-05-10T01:52:36;6.5;;;5.2;;
69917;SDS011;57203;42.672;23.334;2023-05-10T01:53:37;7.8;;;5.8;;
69917;SDS011;57203;42.672;23.334;2023-05-10T01:54:38;7.9;;;5.7;;
69917;SDS011;57203;42.672;23.334;2023-05-10T01:55:39;7.9;;;5.6;;
69917;SDS011;57203;42.672;23.334;2023-05-10T01:56:37;6.6;;;5.4;;
69917;SDS011;57203;42.672;23.334;2023-05-10T01:57:37;6.6;;;5.3;;
69917;SDS011;57203;42.672;23.334;2023-05-10T01:58:37;6.6;;;5.1;;
69917;SDS011;57203;42.672;23.334;2023-05-10T01:59:37;7.1;;;5.3;;
69917;SDS011;57203;42.672;23.334;2023-05-10T02:00:39;6.1;;;5.1;;
69917;SDS011;57203;42.672;23.334;2023-05-10T02:01:39;6.8;;;5.5;;
69917;SDS011;57203;42.672;23.334;2023-05-10T02:02:38;6.1;;;4.9;;
69917;SDS011;57203;42.672;23.334;2023-05-10T02:03:38;6.1;;;5.6;;
69917;SDS011;57203;42.672;23.334;2023-05-10T02:04:38;6.9;;;5.1;;
69917;SDS011;57203;42.672;23.334;2023-05-10T02:05:38;6.0;;;5.2;;
69917;SDS011;57203;42.672;23.334;2023-05-10T02:06:38;7.0;;;5.4;;
69917;SDS011;57203;42.672;23.334;2023-05-10T02:07:39;5.3;;;4.8;;
69917;SDS011;57203;42.672;23.334;2023-05-10T02:08:39;5.7;;;5.1;;
69917;SDS011;57203;42.672;23.334;2023-05-10T02:09:39;5.7;;;4.4;;
69917;SDS011;57203;42.672;23.334;2023-05-10T02:11:39;5.5;;;4.9;;
69917;SDS011;57203;42.672;23.334;2023-05-10T02:13:40;5.8;;;5.1;;
69917;SDS011;57203;42.672;23.334;2023-05-10T02:14:40;6.6;;;4.9;;
69917;SDS011;57203;42.672;23.334;2023-05-10T02:15:40;6.0;;;4.3;;
69917;SDS011;57203;42.672;23.334;2023-05-10T02:16:40;5.5;;;4.8;;
69917;SDS011;57203;42.672;23.334;2023-05-10T02:17:40;5.5;;;4.3;;
69917;SDS011;57203;42.672;23.334;2023-05-10T02:18:41;4.4;;;3.9;;
69917;SDS011;57203;42.672;23.334;2023-05-10T02:19:41;4.4;;;4.2;;
69917;SDS011;57203;42.672;23.334;2023-05-10T02:20:41;4.8;;;4.3;;
69917;SDS011;57203;42.672;23.334;2023-05-10T02:21:41;4.8;;;4.0;;
69917;SDS011;57203;42.672;23.334;2023-05-10T02:22:41;5.2;;;4.5;;
69917;SDS011;57203;42.672;23.334;2023-05-10T02:23:42;5.2;;;4.0;;
69917;SDS011;57203;42.672;23.334;2023-05-10T02:24:42;5.8;;;4.4;;
69917;SDS011;57203;42.672;23.334;2023-05-10T02:25:42;5.8;;;4.1;;
69917;SDS011;57203;42.672;23.334;2023-05-10T02:26:42;5.1;;;4.5;;
69917;SDS011;57203;42.672;23.334;2023-05-10T02:27:42;5.3;;;4.1;;
69917;SDS011;57203;42.672;23.334;2023-05-10T02:28:42;4.7;;;4.2;;
69917;SDS011;57203;42.672;23.334;2023-05-10T02:29:42;9.5;;;4.0;;
69917;SDS011;57203;42.672;23.334;2023-05-10T02:30:43;9.5;;;4.3;;
69917;SDS011;57203;42.672;23.334;2023-05-10T02:31:43;5.8;;;4.0;;
69917;SDS011;57203;42.672;23.334;2023-05-10T02:32:43;4.0;;;3.6;;
69917;SDS011;57203;42.672;23.334;2023-05-10T02:33:43;4.0;;;2.8;;
69917;SDS011;57203;42.672;23.334;2023-05-10T02:34:43;3.6;;;2.9;;
69917;SDS011;57203;42.672;23.334;2023-05-10T02:35:44;3.5;;;3.2;;
69917;SDS011;57203;42.672;23.334;2023-05-10T02:36:44;19.8;;;4.1;;
69917;SDS011;57203;42.672;23.334;2023-05-10T02:37:44;6.0;;;3.9;;
69917;SDS011;57203;42.672;23.334;2023-05-10T02:38:44;5.1;;;4.5;;
69917;SDS011;57203;42.672;23.334;2023-05-10T02:39:45;284.6;;;185.0;;
69917;SDS011;57203;42.672;23.334;2023-05-10T02:40:44;284.6;;;158.6;;
69917;SDS011;57203;42.672;23.334;2023-05-10T02:41:45;248.9;;;11.3;;
69917;SDS011;57203;42.672;23.334;2023-05-10T02:42:45;15.6;;;4.1;;
69917;SDS011;57203;42.672;23.334;2023-05-10T02:43:45;4.6;;;3.2;;
69917;SDS011;57203;42.672;23.334;2023-05-10T02:44:45;4.0;;;2.9;;
69917;SDS011;57203;42.672;23.334;2023-05-10T02:47:46;4.2;;;3.8;;
69917;SDS011;57203;42.672;23.334;2023-05-10T02:48:46;5.6;;;2.9;;
69917;SDS011;57203;42.672;23.334;2023-05-10T02:49:46;4.5;;;3.4;;
69917;SDS011;57203;42.672;23.334;2023-05-10T02:50:46;4.0;;;3.6;;
69917;SDS011;57203;42.672;23.334;2023-05-10T02:51:47;5.5;;;2.6;;
69917;SDS011;57203;42.672;23.334;2023-05-10T02:52:47;3.2;;;2.5;;
69917;SDS011;57203;42.672;23.334;2023-05-10T02:53:47;3.2;;;2.6;;
69917;SDS011;57203;42.672;23.334;2023-05-10T02:54:48;3.9;;;3.7;;
69917;SDS011;57203;42.672;23.334;2023-05-10T02:55:49;6.4;;;3.9;;
69917;SDS011;57203;42.672;23.334;2023-05-10T02:56:50;4.7;;;3.7;;
69917;SDS011;57203;42.672;23.334;2023-05-10T02:57:49;5.8;;;2.6;;
69917;SDS011;57203;42.672;23.334;2023-05-10T02:58:48;5.3;;;2.7;;
69917;SDS011;57203;42.672;23.334;2023-05-10T02:59:48;4.8;;;4.1;;
69917;SDS011;57203;42.672;23.334;2023-05-10T03:00:48;4.8;;;3.8;;
69917;SDS011;57203;42.672;23.334;2023-05-10T03:01:48;5.9;;;4.0;;
69917;SDS011;57203;42.672;23.334;2023-05-10T03:03:49;5.2;;;4.2;;
69917;SDS011;57203;42.672;23.334;2023-05-10T03:04:49;5.2;;;2.5;;
69917;SDS011;57203;42.672;23.334;2023-05-10T03:05:49;4.0;;;2.9;;
69917;SDS011;57203;42.672;23.334;2023-05-10T03:06:49;4.2;;;3.9;;
69917;SDS011;57203;42.672;23.334;2023-05-10T03:07:49;3.4;;;2.9;;
69917;SDS011;57203;42.672;23.334;2023-05-10T03:08:49;3.4;;;3.1;;
69917;SDS011;57203;42.672;23.334;2023-05-10T03:09:50;3.8;;;2.6;;
69917;SDS011;57203;42.672;23.334;2023-05-10T03:10:53;3.8;;;3.8;;
69917;SDS011;57203;42.672;23.334;2023-05-10T03:11:53;4.5;;;3.7;;
69917;SDS011;57203;42.672;23.334;2023-05-10T03:12:53;4.5;;;3.9;;
69917;SDS011;57203;42.672;23.334;2023-05-10T03:13:54;4.3;;;3.6;;
69917;SDS011;57203;42.672;23.334;2023-05-10T03:14:53;6.4;;;4.0;;
69917;SDS011;57203;42.672;23.334;2023-05-10T03:15:51;6.4;;;3.1;;
69917;SDS011;57203;42.672;23.334;2023-05-10T03:16:52;5.8;;;2.8;;
69917;SDS011;57203;42.672;23.334;2023-05-10T03:17:52;3.1;;;4.3;;
69917;SDS011;57203;42.672;23.334;2023-05-10T03:18:54;5.2;;;3.6;;
69917;SDS011;57203;42.672;23.334;2023-05-10T03:19:53;4.1;;;3.5;;
69917;SDS011;57203;42.672;23.334;2023-05-10T03:20:57;4.1;;;4.0;;
69917;SDS011;57203;42.672;23.334;2023-05-10T03:22:53;5.4;;;4.1;;
69917;SDS011;57203;42.672;23.334;2023-05-10T03:23:53;5.4;;;3.5;;
69917;SDS011;57203;42.672;23.334;2023-05-10T03:24:53;4.0;;;3.6;;
69917;SDS011;57203;42.672;23.334;2023-05-10T03:25:53;4.5;;;3.8;;
69917;SDS011;57203;42.672;23.334;2023-05-10T03:26:53;5.7;;;4.0;;
69917;SDS011;57203;42.672;23.334;2023-05-10T03:27:53;5.8;;;3.1;;
69917;SDS011;57203;42.672;23.334;2023-05-10T03:28:53;4.4;;;3.0;;
69917;SDS011;57203;42.672;23.334;2023-05-10T03:29:53;5.8;;;3.7;;
69917;SDS011;57203;42.672;23.334;2023-05-10T03:30:53;4.7;;;3.6;;
69917;SDS011;57203;42.672;23.334;2023-05-10T03:31:54;4.6;;;2.9;;
69917;SDS011;57203;42.672;23.334;2023-05-10T03:32:54;4.6;;;3.4;;
69917;SDS011;57203;42.672;23.334;2023-05-10T03:33:54;4.6;;;3.3;;
69917;SDS011;57203;42.672;23.334;2023-05-10T03:34:55;5.5;;;3.8;;
69917;SDS011;57203;42.672;23.334;2023-05-10T03:35:54;4.3;;;92.1;;
69917;SDS011;57203;42.672;23.334;2023-05-10T03:36:55;165.9;;;20.7;;
69917;SDS011;57203;42.672;23.334;2023-05-10T03:37:55;36.8;;;25.1;;
69917;SDS011;57203;42.672;23.334;2023-05-10T03:38:55;36.6;;;3.5;;
69917;SDS011;57203;42.672;23.334;2023-05-10T03:40:55;4.3;;;3.3;;
69917;SDS011;57203;42.672;23.334;2023-05-10T03:41:56;4.3;;;3.4;;
69917;SDS011;57203;42.672;23.334;2023-05-10T03:42:56;6.0;;;3.3;;
69917;SDS011;57203;42.672;23.334;2023-05-10T03:43:56;6.0;;;3.1;;
69917;SDS011;57203;42.672;23.334;2023-05-10T03:44:56;5.4;;;3.6;;
69917;SDS011;57203;42.672;23.334;2023-05-10T03:45:56;4.3;;;4.1;;
69917;SDS011;57203;42.672;23.334;2023-05-10T03:46:56;4.8;;;4.2;;
69917;SDS011;57203;42.672;23.334;2023-05-10T03:47:57;6.0;;;3.0;;
69917;SDS011;57203;42.672;23.334;2023-05-10T03:48:57;4.8;;;3.6;;
69917;SDS011;57203;42.672;23.334;2023-05-10T03:49:57;4.8;;;4.1;;
69917;SDS011;57203;42.672;23.334;2023-05-10T03:51:57;5.6;;;4.2;;
69917;SDS011;57203;42.672;23.334;2023-05-10T03:52:58;5.3;;;4.4;;
69917;SDS011;57203;42.672;23.334;2023-05-10T03:54:58;5.5;;;4.3;;
69917;SDS011;57203;42.672;23.334;2023-05-10T03:55:58;5.5;;;4.2;;
69917;SDS011;57203;42.672;23.334;2023-05-10T03:56:58;5.3;;;3.4;;
69917;SDS011;57203;42.672;23.334;2023-05-10T03:57:58;5.6;;;4.2;;
69917;SDS011;57203;42.672;23.334;2023-05-10T03:58:59;5.6;;;3.4;;
69917;SDS011;57203;42.672;23.334;2023-05-10T03:59:59;5.6;;;3.6;;
69917;SDS011;57203;42.672;23.334;2023-05-10T04:00:59;5.6;;;4.3;;
69917;SDS011;57203;42.672;23.334;2023-05-10T04:01:59;6.0;;;4.1;;
69917;SDS011;57203;42.672;23.334;2023-05-10T04:04:00;5.3;;;3.8;;
69917;SDS011;57203;42.672;23.334;2023-05-10T04:06:00;5.3;;;4.2;;
69917;SDS011;57203;42.672;23.334;2023-05-10T04:07:00;6.8;;;4.0;;
69917;SDS011;57203;42.672;23.334;2023-05-10T04:08:00;6.1;;;3.6;;
69917;SDS011;57203;42.672;23.334;2023-05-10T04:09:00;4.8;;;3.9;;
69917;SDS011;57203;42.672;23.334;2023-05-10T04:10:01;4.8;;;3.3;;
69917;SDS011;57203;42.672;23.334;2023-05-10T04:11:04;4.3;;;4.2;;
69917;SDS011;57203;42.672;23.334;2023-05-10T04:12:01;4.8;;;4.0;;
69917;SDS011;57203;42.672;23.334;2023-05-10T04:13:01;6.2;;;3.9;;
69917;SDS011;57203;42.672;23.334;2023-05-10T04:14:01;4.8;;;4.1;;
69917;SDS011;57203;42.672;23.334;2023-05-10T04:15:02;5.5;;;3.2;;
69917;SDS011;57203;42.672;23.334;2023-05-10T04:16:02;5.0;;;3.0;;
69917;SDS011;57203;42.672;23.334;2023-05-10T04:17:02;4.9;;;4.1;;
69917;SDS011;57203;42.672;23.334;2023-05-10T04:18:02;5.3;;;3.8;;
69917;SDS011;57203;42.672;23.334;2023-05-10T04:19:02;6.1;;;3.1;;
69917;SDS011;57203;42.672;23.334;2023-05-10T04:20:03;6.1;;;3.4;;
69917;SDS011;57203;42.672;23.334;2023-05-10T04:21:03;5.0;;;4.2;;
69917;SDS011;57203;42.672;23.334;2023-05-10T04:22:03;5.6;;;4.0;;
69917;SDS011;57203;42.672;23.334;2023-05-10T04:23:03;6.5;;;3.2;;
69917;SDS011;57203;42.672;23.334;2023-05-10T04:24:03;5.6;;;3.6;;
69917;SDS011;57203;42.672;23.334;2023-05-10T04:25:04;5.6;;;4.2;;
69917;SDS011;57203;42.672;23.334;2023-05-10T04:26:04;5.1;;;3.7;;
69917;SDS011;57203;42.672;23.334;2023-05-10T04:27:04;5.5;;;4.2;;
69917;SDS011;57203;42.672;23.334;2023-05-10T04:28:04;5.5;;;3.6;;
69917;SDS011;57203;42.672;23.334;2023-05-10T04:29:04;4.6;;;3.3;;
69917;SDS011;57203;42.672;23.334;2023-05-10T04:30:05;5.4;;;3.0;;
69917;SDS011;57203;42.672;23.334;2023-05-10T04:31:05;4.2;;;4.1;;
69917;SDS011;57203;42.672;23.334;2023-05-10T04:32:05;5.9;;;3.7;;
69917;SDS011;57203;42.672;23.334;2023-05-10T04:33:05;4.7;;;4.1;;
69917;SDS011;57203;42.672;23.334;2023-05-10T04:34:05;5.7;;;4.2;;
69917;SDS011;57203;42.672;23.334;2023-05-10T04:35:05;6.6;;;4.1;;
69917;SDS011;57203;42.672;23.334;2023-05-10T04:36:05;4.5;;;3.5;;
69917;SDS011;57203;42.672;23.334;2023-05-10T04:37:06;4.5;;;4.2;;
69917;SDS011;57203;42.672;23.334;2023-05-10T04:38:06;5.7;;;4.5;;
69917;SDS011;57203;42.672;23.334;2023-05-10T04:40:07;7.3;;;4.7;;
69917;SDS011;57203;42.672;23.334;2023-05-10T04:41:07;6.5;;;4.3;;
69917;SDS011;57203;42.672;23.334;2023-05-10T04:42:06;5.9;;;4.5;;
69917;SDS011;57203;42.672;23.334;2023-05-10T04:43:07;5.9;;;4.2;;
69917;SDS011;57203;42.672;23.334;2023-05-10T04:44:07;5.5;;;3.6;;
69917;SDS011;57203;42.672;23.334;2023-05-10T04:45:07;6.5;;;4.8;;
69917;SDS011;57203;42.672;23.334;2023-05-10T04:46:07;5.5;;;3.8;;
69917;SDS011;57203;42.672;23.334;2023-05-10T04:47:07;5.3;;;4.8;;
69917;SDS011;57203;42.672;23.334;2023-05-10T04:48:08;7.0;;;4.3;;
69917;SDS011;57203;42.672;23.334;2023-05-10T04:49:08;4.9;;;4.7;;
69917;SDS011;57203;42.672;23.334;2023-05-10T04:50:08;6.4;;;3.3;;
69917;SDS011;57203;42.672;23.334;2023-05-10T04:51:08;6.2;;;4.1;;
69917;SDS011;57203;42.672;23.334;2023-05-10T04:52:08;6.1;;;4.6;;
69917;SDS011;57203;42.672;23.334;2023-05-10T04:53:08;6.9;;;5.1;;
69917;SDS011;57203;42.672;23.334;2023-05-10T04:54:09;5.8;;;4.9;;
69917;SDS011;57203;42.672;23.334;2023-05-10T04:55:09;5.8;;;4.4;;
69917;SDS011;57203;42.672;23.334;2023-05-10T04:56:09;5.9;;;5.0;;
69917;SDS011;57203;42.672;23.334;2023-05-10T04:57:09;6.8;;;4.6;;
69917;SDS011;57203;42.672;23.334;2023-05-10T04:58:09;6.8;;;4.7;;
69917;SDS011;57203;42.672;23.334;2023-05-10T04:59:09;5.8;;;4.9;;
69917;SDS011;57203;42.672;23.334;2023-05-10T05:00:10;6.7;;;4.4;;
69917;SDS011;57203;42.672;23.334;2023-05-10T05:01:10;6.1;;;4.9;;
69917;SDS011;57203;42.672;23.334;2023-05-10T05:02:10;6.7;;;5.0;;
69917;SDS011;57203;42.672;23.334;2023-05-10T05:04:10;6.7;;;5.1;;
69917;SDS011;57203;42.672;23.334;2023-05-10T05:05:11;7.3;;;4.8;;
69917;SDS011;57203;42.672;23.334;2023-05-10T05:06:11;6.6;;;5.0;;
69917;SDS011;57203;42.672;23.334;2023-05-10T05:07:11;7.2;;;4.8;;
69917;SDS011;57203;42.672;23.334;2023-05-10T05:08:11;6.9;;;5.4;;
69917;SDS011;57203;42.672;23.334;2023-05-10T05:09:11;6.9;;;5.6;;
69917;SDS011;57203;42.672;23.334;2023-05-10T05:10:12;7.3;;;5.0;;
69917;SDS011;57203;42.672;23.334;2023-05-10T05:12:12;5.8;;;4.5;;
69917;SDS011;57203;42.672;23.334;2023-05-10T05:13:12;5.8;;;4.8;;
69917;SDS011;57203;42.672;23.334;2023-05-10T05:15:13;6.0;;;5.0;;
69917;SDS011;57203;42.672;23.334;2023-05-10T05:16:13;7.0;;;5.1;;
69917;SDS011;57203;42.672;23.334;2023-05-10T05:17:13;7.0;;;4.9;;
69917;SDS011;57203;42.672;23.334;2023-05-10T05:18:13;6.0;;;4.8;;
69917;SDS011;57203;42.672;23.334;2023-05-10T05:19:13;5.9;;;5.6;;
69917;SDS011;57203;42.672;23.334;2023-05-10T05:20:14;8.4;;;4.9;;
69917;SDS011;57203;42.672;23.334;2023-05-10T05:21:14;6.3;;;5.2;;
69917;SDS011;57203;42.672;23.334;2023-05-10T05:22:14;6.3;;;4.7;;
69917;SDS011;57203;42.672;23.334;2023-05-10T05:23:14;7.3;;;5.1;;
69917;SDS011;57203;42.672;23.334;2023-05-10T05:25:15;7.2;;;5.3;;
69917;SDS011;57203;42.672;23.334;2023-05-10T05:26:15;7.0;;;5.7;;
69917;SDS011;57203;42.672;23.334;2023-05-10T05:27:15;6.9;;;5.6;;
69917;SDS011;57203;42.672;23.334;2023-05-10T05:28:15;6.9;;;5.0;;
69917;SDS011;57203;42.672;23.334;2023-05-10T05:30:15;7.8;;;5.3;;
69917;SDS011;57203;42.672;23.334;2023-05-10T05:31:15;6.0;;;5.0;;
69917;SDS011;57203;42.672;23.334;2023-05-10T05:32:16;7.9;;;5.3;;
69917;SDS011;57203;42.672;23.334;2023-05-10T05:33:16;7.6;;;5.7;;
69917;SDS011;57203;42.672;23.334;2023-05-10T05:34:16;8.2;;;5.0;;
69917;SDS011;57203;42.672;23.334;2023-05-10T05:35:16;6.6;;;5.3;;
69917;SDS011;57203;42.672;23.334;2023-05-10T05:36:16;9.8;;;5.1;;
69917;SDS011;57203;42.672;23.334;2023-05-10T05:37:18;7.3;;;5.3;;
69917;SDS011;57203;42.672;23.334;2023-05-10T05:38:17;7.3;;;5.1;;
69917;SDS011;57203;42.672;23.334;2023-05-10T05:39:17;7.3;;;5.4;;
69917;SDS011;57203;42.672;23.334;2023-05-10T05:40:17;7.0;;;4.9;;
69917;SDS011;57203;42.672;23.334;2023-05-10T05:41:17;6.4;;;5.4;;
69917;SDS011;57203;42.672;23.334;2023-05-10T05:42:18;7.9;;;5.6;;
69917;SDS011;57203;42.672;23.334;2023-05-10T05:43:18;8.2;;;5.1;;
69917;SDS011;57203;42.672;23.334;2023-05-10T05:44:18;8.2;;;5.7;;
69917;SDS011;57203;42.672;23.334;2023-05-10T05:45:18;7.7;;;5.9;;
69917;SDS011;57203;42.672;23.334;2023-05-10T05:46:18;5.8;;;5.2;;
69917;SDS011;57203;42.672;23.334;2023-05-10T05:47:18;5.8;;;5.3;;
69917;SDS011;57203;42.672;23.334;2023-05-10T05:48:19;9.2;;;5.0;;
69917;SDS011;57203;42.672;23.334;2023-05-10T05:49:19;9.2;;;6.3;;
69917;SDS011;57203;42.672;23.334;2023-05-10T05:50:19;9.4;;;5.7;;
69917;SDS011;57203;42.672;23.334;2023-05-10T05:51:19;7.5;;;6.0;;
69917;SDS011;57203;42.672;23.334;2023-05-10T05:52:19;7.5;;;5.8;;
69917;SDS011;57203;42.672;23.334;2023-05-10T05:53:20;8.0;;;5.7;;
69917;SDS011;57203;42.672;23.334;2023-05-10T05:54:20;8.2;;;5.8;;
69917;SDS011;57203;42.672;23.334;2023-05-10T05:55:20;7.4;;;6.2;;
69917;SDS011;57203;42.672;23.334;2023-05-10T05:56:20;9.3;;;5.8;;
69917;SDS011;57203;42.672;23.334;2023-05-10T05:57:20;8.4;;;6.2;;
69917;SDS011;57203;42.672;23.334;2023-05-10T05:58:21;8.4;;;6.0;;
69917;SDS011;57203;42.672;23.334;2023-05-10T05:59:21;7.6;;;5.9;;
69917;SDS011;57203;42.672;23.334;2023-05-10T06:00:21;7.7;;;5.3;;
69917;SDS011;57203;42.672;23.334;2023-05-10T06:01:21;8.1;;;6.2;;
69917;SDS011;57203;42.672;23.334;2023-05-10T06:02:21;8.1;;;5.9;;
69917;SDS011;57203;42.672;23.334;2023-05-10T06:03:21;7.1;;;5.8;;
69917;SDS011;57203;42.672;23.334;2023-05-10T06:04:22;7.1;;;6.1;;
69917;SDS011;57203;42.672;23.334;2023-05-10T06:05:22;8.1;;;6.2;;
69917;SDS011;57203;42.672;23.334;2023-05-10T06:06:22;8.1;;;6.8;;
69917;SDS011;57203;42.672;23.334;2023-05-10T06:07:22;9.3;;;6.4;;
69917;SDS011;57203;42.672;23.334;2023-05-10T06:08:22;8.5;;;6.6;;
69917;SDS011;57203;42.672;23.334;2023-05-10T06:09:22;8.5;;;6.7;;
69917;SDS011;57203;42.672;23.334;2023-05-10T06:10:23;9.1;;;6.8;;
69917;SDS011;57203;42.672;23.334;2023-05-10T06:11:23;8.7;;;6.6;;
69917;SDS011;57203;42.672;23.334;2023-05-10T06:12:23;10.8;;;7.1;;
69917;SDS011;57203;42.672;23.334;2023-05-10T06:13:23;10.8;;;6.8;;
69917;SDS011;57203;42.672;23.334;2023-05-10T06:15:24;9.3;;;6.9;;
69917;SDS011;57203;42.672;23.334;2023-05-10T06:16:24;9.8;;;6.3;;
69917;SDS011;57203;42.672;23.334;2023-05-10T06:17:24;9.1;;;6.8;;
69917;SDS011;57203;42.672;23.334;2023-05-10T06:18:24;9.1;;;6.9;;
69917;SDS011;57203;42.672;23.334;2023-05-10T06:19:24;9.9;;;6.5;;
69917;SDS011;57203;42.672;23.334;2023-05-10T06:20:25;8.1;;;6.9;;
69917;SDS011;57203;42.672;23.334;2023-05-10T06:21:25;10.3;;;6.4;;
69917;SDS011;57203;42.672;23.334;2023-05-10T06:22:25;10.4;;;6.2;;
69917;SDS011;57203;42.672;23.334;2023-05-10T06:23:25;9.1;;;6.0;;
69917;SDS011;57203;42.672;23.334;2023-05-10T06:24:25;9.1;;;6.4;;
69917;SDS011;57203;42.672;23.334;2023-05-10T06:25:26;8.8;;;6.2;;
69917;SDS011;57203;42.672;23.334;2023-05-10T06:26:26;8.2;;;6.5;;
69917;SDS011;57203;42.672;23.334;2023-05-10T06:27:26;7.9;;;6.1;;
69917;SDS011;57203;42.672;23.334;2023-05-10T06:28:26;8.1;;;6.5;;
69917;SDS011;57203;42.672;23.334;2023-05-10T06:29:26;9.8;;;6.0;;
69917;SDS011;57203;42.672;23.334;2023-05-10T06:30:26;8.1;;;6.1;;
69917;SDS011;57203;42.672;23.334;2023-05-10T06:31:27;8.9;;;6.3;;
69917;SDS011;57203;42.672;23.334;2023-05-10T06:32:27;8.2;;;7.0;;
69917;SDS011;57203;42.672;23.334;2023-05-10T06:33:27;10.7;;;6.5;;
69917;SDS011;57203;42.672;23.334;2023-05-10T06:34:27;9.1;;;6.1;;
69917;SDS011;57203;42.672;23.334;2023-05-10T06:35:27;8.1;;;6.2;;
69917;SDS011;57203;42.672;23.334;2023-05-10T06:36:28;9.1;;;6.0;;
69917;SDS011;57203;42.672;23.334;2023-05-10T06:37:28;8.0;;;6.2;;
69917;SDS011;57203;42.672;23.334;2023-05-10T06:38:28;7.7;;;6.7;;
69917;SDS011;57203;42.672;23.334;2023-05-10T06:39:28;8.4;;;5.8;;